Time;durP1;ratioP1;P1;durP2;ratioP2;P2;SDS_P1;SDS_P2;PMS_P1;PMS_P2;Temp;Humidity;BMP_temperature;BMP_pressure;BME280_temperature;BME280_humidity;BME280_pressure;Samples;Min_cycle;Max_cycle;Signal;HPM_P1;HPM_P2
2021/09/18 00:00:54;;;;;;;24.90;18.45;;;;;;;;;;2081061;28;20184;-56
2021/09/18 00:01:54;;;;;;;23.27;17.77;;;;;;;;;;2089903;28;20172;-56
2021/09/18 00:02:55;;;;;;;25.52;18.83;;;;;;;;;;2089916;28;20168;-56
2021/09/18 00:03:55;;;;;;;21.40;17.50;;;;;;;;;;2089527;28;20559;-60
2021/09/18 00:04:55;;;;;;;22.50;18.25;;;;;;;;;;2089991;28;20543;-60
2021/09/18 00:05:56;;;;;;;21.75;17.58;;;;;;;;;;2089400;28;20758;-58
2021/09/18 00:06:56;;;;;;;21.92;19.13;;;;;;;;;;2089644;28;20174;-60
2021/09/18 00:07:57;;;;;;;23.58;18.92;;;;;;;;;;2089186;28;20263;-55
2021/09/18 00:08:57;;;;;;;21.27;18.98;;;;;;;;;;2089864;28;20262;-59
2021/09/18 00:09:57;;;;;;;25.35;19.10;;;;;;;;;;2089895;28;20640;-58
2021/09/18 00:10:57;;;;;;;24.38;18.10;;;;;;;;;;2090089;28;20254;-62
2021/09/18 00:11:58;;;;;;;19.10;16.90;;;;;;;;;;2080735;28;20175;-59
2021/09/18 00:12:58;;;;;;;21.30;18.13;;;;;;;;;;2081147;28;20224;-61
2021/09/18 00:13:58;;;;;;;23.52;19.42;;;;;;;;;;2089573;28;20205;-59
2021/09/18 00:14:59;;;;;;;25.00;19.17;;;;;;;;;;2080877;28;20172;-60
2021/09/18 00:15:59;;;;;;;24.98;19.17;;;;;;;;;;2081067;28;20262;-59
2021/09/18 00:16:59;;;;;;;24.20;19.42;;;;;;;;;;2089739;28;20754;-58
2021/09/18 00:18:00;;;;;;;21.70;18.73;;;;;;;;;;2089283;28;20163;-59
2021/09/18 00:19:00;;;;;;;25.70;19.67;;;;;;;;;;2089577;28;20289;-60
2021/09/18 00:20:01;;;;;;;28.63;21.10;;;;;;;;;;2089680;28;20183;-60
2021/09/18 00:21:02;;;;;;;23.83;20.55;;;;;;;;;;2089909;28;20171;-60
2021/09/18 00:22:02;;;;;;;26.08;20.08;;;;;;;;;;2089812;28;20792;-61
2021/09/18 00:23:03;;;;;;;30.73;20.05;;;;;;;;;;2089955;28;20218;-57
2021/09/18 00:24:03;;;;;;;25.10;19.98;;;;;;;;;;2089390;28;20221;-61
2021/09/18 00:25:04;;;;;;;29.63;21.23;;;;;;;;;;2089791;28;20250;-59
2021/09/18 00:26:04;;;;;;;27.13;20.88;;;;;;;;;;2080792;28;20739;-57
2021/09/18 00:27:04;;;;;;;25.92;20.40;;;;;;;;;;2080788;28;20169;-59
2021/09/18 00:28:05;;;;;;;22.25;19.17;;;;;;;;;;2089131;28;20171;-60
2021/09/18 00:29:05;;;;;;;23.17;18.55;;;;;;;;;;2089782;28;20182;-60
2021/09/18 00:30:06;;;;;;;25.70;19.10;;;;;;;;;;2088958;28;20197;-59
2021/09/18 00:31:06;;;;;;;28.27;20.80;;;;;;;;;;2089272;28;20191;-59
2021/09/18 00:32:06;;;;;;;22.85;19.05;;;;;;;;;;2089303;28;20160;-61
2021/09/18 00:33:06;;;;;;;23.23;19.05;;;;;;;;;;2089730;28;20194;-60
2021/09/18 00:34:07;;;;;;;23.98;17.80;;;;;;;;;;2089444;28;20175;-59
2021/09/18 00:35:07;;;;;;;24.25;19.13;;;;;;;;;;2080969;28;20171;-60
2021/09/18 00:36:08;;;;;;;22.30;17.55;;;;;;;;;;2081081;28;20227;-58
2021/09/18 00:37:08;;;;;;;23.15;19.88;;;;;;;;;;2080682;28;20661;-62
2021/09/18 00:38:08;;;;;;;25.63;20.60;;;;;;;;;;2089891;28;20168;-59
2021/09/18 00:39:08;;;;;;;28.98;21.10;;;;;;;;;;2088440;28;20164;-59
2021/09/18 00:40:09;;;;;;;24.17;19.10;;;;;;;;;;2090040;28;20697;-59
2021/09/18 00:41:09;;;;;;;21.83;18.20;;;;;;;;;;2085670;28;20287;-61
2021/09/18 00:42:10;;;;;;;20.45;16.58;;;;;;;;;;2088251;28;20647;-62
2021/09/18 00:43:11;;;;;;;20.35;17.05;;;;;;;;;;2082412;28;20176;-62
2021/09/18 00:44:18;;;;;;;19.60;17.20;;;;;;;;;;2082291;28;20187;-61
2021/09/18 00:45:18;;;;;;;21.73;16.95;;;;;;;;;;2090222;28;20190;-62
2021/09/18 00:46:18;;;;;;;21.30;16.95;;;;;;;;;;2080457;28;20238;-58
2021/09/18 00:47:19;;;;;;;25.05;17.17;;;;;;;;;;2078404;28;20192;-54
2021/09/18 00:48:19;;;;;;;23.55;16.92;;;;;;;;;;2088233;28;20167;-60
2021/09/18 00:49:19;;;;;;;21.63;17.65;;;;;;;;;;2079503;28;20180;-60
2021/09/18 00:50:20;;;;;;;23.35;17.98;;;;;;;;;;2080367;28;20601;-56
2021/09/18 00:51:21;;;;;;;22.15;17.50;;;;;;;;;;2087961;28;20198;-58
2021/09/18 00:52:21;;;;;;;20.92;17.25;;;;;;;;;;2088801;28;20207;-60
2021/09/18 00:53:22;;;;;;;22.10;17.83;;;;;;;;;;2087984;28;20168;-59
2021/09/18 00:54:23;;;;;;;20.75;16.63;;;;;;;;;;2088710;28;20167;-59
2021/09/18 00:55:23;;;;;;;22.50;17.60;;;;;;;;;;2088574;28;20179;-60
2021/09/18 00:56:24;;;;;;;25.15;17.42;;;;;;;;;;2088386;28;20219;-60
2021/09/18 00:57:24;;;;;;;21.83;17.42;;;;;;;;;;2087764;28;20179;-58
2021/09/18 00:58:24;;;;;;;21.02;17.33;;;;;;;;;;2086880;28;20172;-61
2021/09/18 00:59:24;;;;;;;22.88;17.85;;;;;;;;;;2088293;28;20164;-60
2021/09/18 01:00:25;;;;;;;22.15;17.85;;;;;;;;;;2088748;28;20202;-60
2021/09/18 01:01:25;;;;;;;21.02;17.08;;;;;;;;;;2088604;28;20207;-57
2021/09/18 01:02:25;;;;;;;22.05;18.65;;;;;;;;;;2088354;28;20655;-61
2021/09/18 01:03:25;;;;;;;28.00;21.45;;;;;;;;;;2089430;28;20179;-62
2021/09/18 01:04:26;;;;;;;27.02;19.70;;;;;;;;;;2088983;28;20175;-56
2021/09/18 01:05:26;;;;;;;24.58;21.02;;;;;;;;;;2087189;28;20751;-62
2021/09/18 01:06:28;;;;;;;25.02;21.08;;;;;;;;;;2080023;28;20221;-60
2021/09/18 01:07:28;;;;;;;29.02;23.08;;;;;;;;;;2080777;28;20255;-60
2021/09/18 01:08:30;;;;;;;27.38;22.35;;;;;;;;;;2079830;28;20231;-60
2021/09/18 01:09:31;;;;;;;32.25;23.60;;;;;;;;;;2072048;28;20192;-61
2021/09/18 01:10:31;;;;;;;27.85;22.17;;;;;;;;;;2077214;28;20181;-56
2021/09/18 01:11:31;;;;;;;35.80;25.00;;;;;;;;;;2080234;28;20176;-62
2021/09/18 01:12:31;;;;;;;28.13;21.90;;;;;;;;;;2080393;28;20205;-60
2021/09/18 01:13:33;;;;;;;28.23;21.73;;;;;;;;;;2087671;28;20179;-60
2021/09/18 01:14:33;;;;;;;26.95;20.20;;;;;;;;;;2088864;28;20182;-61
2021/09/18 01:15:34;;;;;;;26.58;20.80;;;;;;;;;;2088650;28;20191;-58
2021/09/18 01:16:35;;;;;;;28.73;20.75;;;;;;;;;;2089051;28;20168;-57
2021/09/18 01:17:35;;;;;;;30.20;20.80;;;;;;;;;;2087580;28;20193;-57
2021/09/18 01:18:35;;;;;;;28.15;21.13;;;;;;;;;;2079217;28;20545;-57
2021/09/18 01:19:35;;;;;;;26.02;20.70;;;;;;;;;;2079838;28;20175;-59
2021/09/18 01:20:37;;;;;;;28.17;21.13;;;;;;;;;;2088697;28;20222;-60
2021/09/18 01:21:37;;;;;;;24.35;20.23;;;;;;;;;;2089775;28;20164;-61
2021/09/18 01:22:38;;;;;;;25.13;19.85;;;;;;;;;;2089379;28;20267;-60
2021/09/18 01:23:38;;;;;;;25.05;19.80;;;;;;;;;;2089583;28;20179;-63
2021/09/18 01:24:39;;;;;;;23.40;19.02;;;;;;;;;;2080829;28;20169;-62
2021/09/18 01:25:40;;;;;;;25.17;20.27;;;;;;;;;;2080814;28;20176;-59
2021/09/18 01:26:40;;;;;;;23.55;19.88;;;;;;;;;;2089172;28;20180;-61
2021/09/18 01:27:43;;;;;;;28.73;20.48;;;;;;;;;;2089278;28;20187;-62
2021/09/18 01:28:44;;;;;;;26.52;19.98;;;;;;;;;;2089124;28;20177;-62
2021/09/18 01:29:45;;;;;;;26.02;19.55;;;;;;;;;;2089778;28;20210;-59
2021/09/18 01:30:45;;;;;;;25.17;19.25;;;;;;;;;;2089545;28;20267;-61
2021/09/18 01:31:47;;;;;;;27.80;19.30;;;;;;;;;;2089628;28;20176;-60
2021/09/18 01:32:47;;;;;;;22.63;19.30;;;;;;;;;;2088406;28;20223;-61
2021/09/18 01:33:51;;;;;;;23.92;20.45;;;;;;;;;;2089343;28;20184;-61
2021/09/18 01:34:51;;;;;;;24.25;19.05;;;;;;;;;;2089609;28;20208;-59
2021/09/18 01:35:51;;;;;;;22.17;18.83;;;;;;;;;;2089513;28;20184;-61
2021/09/18 01:36:52;;;;;;;24.45;18.50;;;;;;;;;;2080664;28;20168;-60
2021/09/18 01:37:52;;;;;;;23.80;17.42;;;;;;;;;;2080235;28;20306;-61
2021/09/18 01:38:53;;;;;;;23.70;18.40;;;;;;;;;;2080244;28;20256;-60
2021/09/18 01:39:53;;;;;;;21.13;16.30;;;;;;;;;;2080330;28;20299;-61
2021/09/18 01:40:53;;;;;;;20.55;18.33;;;;;;;;;;2089571;28;20178;-63
2021/09/18 01:41:53;;;;;;;22.52;17.95;;;;;;;;;;2089550;28;20203;-61
2021/09/18 01:42:54;;;;;;;20.98;16.30;;;;;;;;;;2089584;28;20271;-60
2021/09/18 01:43:54;;;;;;;21.58;16.25;;;;;;;;;;2087647;28;20202;-55
2021/09/18 01:44:55;;;;;;;18.70;16.63;;;;;;;;;;2084932;28;20179;-60
2021/09/18 01:45:55;;;;;;;18.08;16.20;;;;;;;;;;2079925;28;20196;-60
2021/09/18 01:46:55;;;;;;;20.23;16.42;;;;;;;;;;2079869;28;20164;-62
2021/09/18 01:47:57;;;;;;;19.30;17.23;;;;;;;;;;2088805;28;20176;-61
2021/09/18 01:48:57;;;;;;;22.02;17.95;;;;;;;;;;2088992;28;20640;-59
2021/09/18 01:49:57;;;;;;;20.63;17.48;;;;;;;;;;2088882;28;20172;-61
2021/09/18 01:51:01;;;;;;;20.15;16.38;;;;;;;;;;2088745;28;20325;-55
2021/09/18 01:52:18;;;;;;;19.50;17.30;;;;;;;;;;2089425;28;20656;-61
2021/09/18 01:53:19;;;;;;;20.90;17.65;;;;;;;;;;2089723;28;20148;-60
2021/09/18 01:54:20;;;;;;;23.08;17.33;;;;;;;;;;2089055;28;20206;-63
2021/09/18 01:55:20;;;;;;;22.67;17.20;;;;;;;;;;2080710;28;20569;-62
2021/09/18 01:56:20;;;;;;;19.50;16.50;;;;;;;;;;2080421;28;20204;-61
2021/09/18 01:57:21;;;;;;;20.52;17.67;;;;;;;;;;2089319;28;20247;-61
2021/09/18 01:58:21;;;;;;;21.27;16.98;;;;;;;;;;2090250;28;20168;-57
2021/09/18 01:59:22;;;;;;;18.95;16.60;;;;;;;;;;2090985;28;20596;-56
2021/09/18 02:00:22;;;;;;;23.13;17.40;;;;;;;;;;2090921;28;20593;-60
2021/09/18 02:01:23;;;;;;;20.70;16.48;;;;;;;;;;2085565;28;20227;-58
2021/09/18 02:02:23;;;;;;;19.05;17.02;;;;;;;;;;2082126;28;20190;-60
2021/09/18 02:03:23;;;;;;;20.85;17.65;;;;;;;;;;2077800;28;20164;-60
2021/09/18 02:04:23;;;;;;;23.33;18.05;;;;;;;;;;2082154;28;20180;-58
2021/09/18 02:05:25;;;;;;;25.48;18.65;;;;;;;;;;2090877;28;20199;-60
2021/09/18 02:06:26;;;;;;;22.40;18.25;;;;;;;;;;2083193;28;20212;-60
2021/09/18 02:07:26;;;;;;;21.35;18.70;;;;;;;;;;2082045;28;20181;-56
2021/09/18 02:08:26;;;;;;;23.58;19.05;;;;;;;;;;2083691;28;20181;-62
2021/09/18 02:09:27;;;;;;;21.75;18.30;;;;;;;;;;2090517;28;20184;-64
2021/09/18 02:10:28;;;;;;;22.23;19.15;;;;;;;;;;2089769;28;20176;-64
2021/09/18 02:11:28;;;;;;;28.48;21.58;;;;;;;;;;2090668;28;20167;-60
2021/09/18 02:12:28;;;;;;;29.38;23.98;;;;;;;;;;2082568;28;20211;-61
2021/09/18 02:13:29;;;;;;;29.48;23.80;;;;;;;;;;2090091;28;20180;-61
2021/09/18 02:14:29;;;;;;;32.15;22.52;;;;;;;;;;2089850;28;20186;-60
2021/09/18 02:15:29;;;;;;;27.33;20.80;;;;;;;;;;2089133;28;20182;-60
2021/09/18 02:16:30;;;;;;;23.63;19.77;;;;;;;;;;2090152;28;20168;-61
2021/09/18 02:17:30;;;;;;;27.17;20.17;;;;;;;;;;2089437;28;20192;-61
2021/09/18 02:18:30;;;;;;;22.73;19.40;;;;;;;;;;2081845;28;20187;-65
2021/09/18 02:19:31;;;;;;;23.05;18.15;;;;;;;;;;2089190;28;20215;-61
2021/09/18 02:20:31;;;;;;;27.10;21.00;;;;;;;;;;2090118;28;20167;-59
2021/09/18 02:21:32;;;;;;;22.77;18.98;;;;;;;;;;2088074;28;20168;-62
2021/09/18 02:22:32;;;;;;;25.45;22.23;;;;;;;;;;2090018;28;20170;-62
2021/09/18 02:23:32;;;;;;;28.48;20.35;;;;;;;;;;2087841;28;20178;-59
2021/09/18 02:24:32;;;;;;;23.58;18.85;;;;;;;;;;2081514;28;20172;-61
2021/09/18 02:25:33;;;;;;;24.02;18.95;;;;;;;;;;2081598;28;20178;-61
2021/09/18 02:26:33;;;;;;;23.92;17.98;;;;;;;;;;2090250;28;20214;-59
2021/09/18 02:27:34;;;;;;;22.77;17.40;;;;;;;;;;2081356;28;20226;-63
2021/09/18 02:28:34;;;;;;;23.88;19.90;;;;;;;;;;2080756;28;20215;-60
2021/09/18 02:29:34;;;;;;;25.25;18.13;;;;;;;;;;2090455;28;20290;-63
2021/09/18 02:30:36;;;;;;;23.92;18.42;;;;;;;;;;2089449;28;20203;-58
2021/09/18 02:31:36;;;;;;;24.13;18.67;;;;;;;;;;2089409;28;20172;-64
2021/09/18 02:32:36;;;;;;;25.77;18.63;;;;;;;;;;2089464;28;20199;-62
2021/09/18 02:33:36;;;;;;;23.05;18.05;;;;;;;;;;2090693;28;20168;-60
2021/09/18 02:34:37;;;;;;;21.50;16.58;;;;;;;;;;2090739;28;20247;-54
2021/09/18 02:35:37;;;;;;;20.75;15.90;;;;;;;;;;2089178;28;20186;-58
2021/09/18 02:36:37;;;;;;;21.13;17.17;;;;;;;;;;2090381;28;20155;-60
2021/09/18 02:37:38;;;;;;;20.63;16.02;;;;;;;;;;2089650;28;20250;-62
2021/09/18 02:38:39;;;;;;;20.23;15.95;;;;;;;;;;2080259;28;20263;-61
2021/09/18 02:39:39;;;;;;;19.90;16.10;;;;;;;;;;2080636;28;20176;-61
2021/09/18 02:40:40;;;;;;;17.88;15.07;;;;;;;;;;2087257;28;20168;-60
2021/09/18 02:41:41;;;;;;;22.92;15.57;;;;;;;;;;2089522;28;20159;-60
2021/09/18 02:42:42;;;;;;;18.85;15.25;;;;;;;;;;2087910;28;20172;-60
2021/09/18 02:43:43;;;;;;;18.48;15.40;;;;;;;;;;2089588;28;20175;-62
2021/09/18 02:44:43;;;;;;;20.88;17.15;;;;;;;;;;2089685;28;20189;-64
2021/09/18 02:45:43;;;;;;;22.17;18.05;;;;;;;;;;2089297;28;20989;-58
2021/09/18 02:46:43;;;;;;;25.77;18.75;;;;;;;;;;2086921;28;20649;-63
2021/09/18 02:47:44;;;;;;;23.05;18.90;;;;;;;;;;2090248;28;20262;-63
2021/09/18 02:48:44;;;;;;;25.52;19.48;;;;;;;;;;2085009;28;20172;-61
2021/09/18 02:49:44;;;;;;;26.20;18.63;;;;;;;;;;2090262;28;20176;-62
2021/09/18 02:50:46;;;;;;;24.10;18.73;;;;;;;;;;2080259;28;20173;-64
2021/09/18 02:51:46;;;;;;;24.27;20.40;;;;;;;;;;2080912;28;20176;-57
2021/09/18 02:52:46;;;;;;;25.48;19.80;;;;;;;;;;2080312;28;20573;-63
2021/09/18 02:53:46;;;;;;;24.35;19.90;;;;;;;;;;2090435;28;20179;-59
2021/09/18 02:54:47;;;;;;;27.33;18.77;;;;;;;;;;2090181;28;20286;-62
2021/09/18 02:55:47;;;;;;;23.55;18.98;;;;;;;;;;2087703;28;20187;-63
2021/09/18 02:56:48;;;;;;;23.95;18.90;;;;;;;;;;2081454;28;20259;-64
2021/09/18 02:57:48;;;;;;;26.98;18.55;;;;;;;;;;2080359;28;20322;-58
2021/09/18 02:58:48;;;;;;;26.95;20.98;;;;;;;;;;2080701;28;20235;-63
2021/09/18 02:59:48;;;;;;;28.75;19.38;;;;;;;;;;2073063;28;20227;-63
2021/09/18 03:00:49;;;;;;;24.15;19.02;;;;;;;;;;2080250;28;20263;-57
2021/09/18 03:01:49;;;;;;;28.48;20.25;;;;;;;;;;2088190;28;20821;-62
2021/09/18 03:02:49;;;;;;;25.00;19.63;;;;;;;;;;2080576;28;20722;-60
2021/09/18 03:03:49;;;;;;;21.65;17.88;;;;;;;;;;2081086;28;20172;-61
2021/09/18 03:04:50;;;;;;;25.02;18.98;;;;;;;;;;2086476;28;20207;-56
2021/09/18 03:05:50;;;;;;;24.92;18.60;;;;;;;;;;2088419;28;20243;-62
2021/09/18 03:06:50;;;;;;;23.15;19.38;;;;;;;;;;2089820;28;20198;-62
2021/09/18 03:07:50;;;;;;;28.13;20.10;;;;;;;;;;2090191;28;20207;-62
2021/09/18 03:08:51;;;;;;;25.25;19.75;;;;;;;;;;2086638;28;20899;-60
2021/09/18 03:09:51;;;;;;;26.65;19.85;;;;;;;;;;2089337;28;20187;-61
2021/09/18 03:10:52;;;;;;;27.02;22.08;;;;;;;;;;2081487;28;20251;-61
2021/09/18 03:11:52;;;;;;;23.15;19.55;;;;;;;;;;2072693;28;20824;-62
2021/09/18 03:12:52;;;;;;;22.55;19.17;;;;;;;;;;2074756;28;20704;-61
2021/09/18 03:13:52;;;;;;;26.17;19.08;;;;;;;;;;2084761;28;20642;-61
2021/09/18 03:14:53;;;;;;;24.52;19.60;;;;;;;;;;2081141;28;20608;-61
2021/09/18 03:15:53;;;;;;;26.17;19.60;;;;;;;;;;2080724;28;20556;-61
2021/09/18 03:16:53;;;;;;;26.67;20.60;;;;;;;;;;2089890;28;20217;-64
2021/09/18 03:17:53;;;;;;;25.83;20.80;;;;;;;;;;2088003;28;20551;-61
2021/09/18 03:18:54;;;;;;;24.95;20.38;;;;;;;;;;2084854;28;20195;-61
2021/09/18 03:19:55;;;;;;;23.88;19.08;;;;;;;;;;2085242;28;20170;-60
2021/09/18 03:20:55;;;;;;;26.73;20.73;;;;;;;;;;2090936;28;20167;-62
2021/09/18 03:21:55;;;;;;;28.05;20.85;;;;;;;;;;2086735;28;20187;-63
2021/09/18 03:22:56;;;;;;;24.13;21.00;;;;;;;;;;2089209;28;20255;-62
2021/09/18 03:23:56;;;;;;;23.20;19.85;;;;;;;;;;2089484;28;20176;-56
2021/09/18 03:24:56;;;;;;;24.52;19.52;;;;;;;;;;2090155;28;20176;-61
2021/09/18 03:25:57;;;;;;;22.40;18.95;;;;;;;;;;2089901;28;20209;-61
2021/09/18 03:26:57;;;;;;;26.15;18.33;;;;;;;;;;2089908;28;20180;-60
2021/09/18 03:27:57;;;;;;;21.48;18.10;;;;;;;;;;2080237;28;20180;-58
2021/09/18 03:28:57;;;;;;;17.95;15.77;;;;;;;;;;2081219;28;20278;-61
2021/09/18 03:29:58;;;;;;;18.10;15.48;;;;;;;;;;2073074;28;20220;-61
2021/09/18 03:30:58;;;;;;;19.13;15.93;;;;;;;;;;2073403;28;20179;-61
2021/09/18 03:31:58;;;;;;;20.55;16.35;;;;;;;;;;2075957;28;20287;-61
2021/09/18 03:32:58;;;;;;;17.38;15.15;;;;;;;;;;2073243;28;20220;-58
2021/09/18 03:33:59;;;;;;;18.33;15.05;;;;;;;;;;2072782;28;20256;-60
2021/09/18 03:34:59;;;;;;;20.33;15.52;;;;;;;;;;2092207;28;20175;-61
2021/09/18 03:36:00;;;;;;;15.45;13.23;;;;;;;;;;2093172;28;20199;-62
2021/09/18 03:37:00;;;;;;;16.55;13.93;;;;;;;;;;2082376;28;20172;-61
2021/09/18 03:38:00;;;;;;;15.77;14.02;;;;;;;;;;2082177;28;20219;-61
2021/09/18 03:39:00;;;;;;;16.27;14.52;;;;;;;;;;2090570;28;20167;-63
2021/09/18 03:40:02;;;;;;;16.42;14.13;;;;;;;;;;2082511;28;20184;-59
2021/09/18 03:41:02;;;;;;;15.98;13.88;;;;;;;;;;2082372;28;20180;-64
2021/09/18 03:42:02;;;;;;;15.95;14.02;;;;;;;;;;2082749;28;20231;-62
2021/09/18 03:43:03;;;;;;;18.88;14.10;;;;;;;;;;2093076;28;20250;-61
2021/09/18 03:44:04;;;;;;;18.65;15.57;;;;;;;;;;2092204;28;20167;-58
2021/09/18 03:45:04;;;;;;;19.42;15.15;;;;;;;;;;2092306;28;20194;-61
2021/09/18 03:46:04;;;;;;;18.05;14.77;;;;;;;;;;2092988;28;20227;-63
2021/09/18 03:47:05;;;;;;;21.10;14.65;;;;;;;;;;2093143;28;20167;-62
2021/09/18 03:48:05;;;;;;;16.67;13.95;;;;;;;;;;2092547;28;20176;-60
2021/09/18 03:49:05;;;;;;;17.70;14.77;;;;;;;;;;2084758;28;20258;-59
2021/09/18 03:50:07;;;;;;;18.23;16.33;;;;;;;;;;2076813;28;20208;-60
2021/09/18 03:51:07;;;;;;;19.33;16.77;;;;;;;;;;2077158;28;20949;-63
2021/09/18 03:52:07;;;;;;;18.52;16.50;;;;;;;;;;2077804;28;20201;-61
2021/09/18 03:53:07;;;;;;;20.38;16.08;;;;;;;;;;2084373;28;20251;-64
2021/09/18 03:54:08;;;;;;;19.75;15.88;;;;;;;;;;2083525;28;20184;-57
2021/09/18 03:55:08;;;;;;;19.83;16.35;;;;;;;;;;2081462;28;20625;-58
2021/09/18 03:56:09;;;;;;;23.45;15.48;;;;;;;;;;2091642;28;20214;-63
2021/09/18 03:57:09;;;;;;;18.40;15.63;;;;;;;;;;2082202;28;20753;-63
2021/09/18 03:58:09;;;;;;;20.00;16.48;;;;;;;;;;2072970;28;20161;-62
2021/09/18 03:59:10;;;;;;;22.40;16.33;;;;;;;;;;2072455;28;20801;-60
2021/09/18 04:00:10;;;;;;;19.33;16.02;;;;;;;;;;2079826;28;20188;-58
2021/09/18 04:01:10;;;;;;;21.25;15.95;;;;;;;;;;2089757;28;20241;-58
2021/09/18 04:02:11;;;;;;;20.40;16.52;;;;;;;;;;2090350;28;20769;-55
2021/09/18 04:03:11;;;;;;;21.55;16.10;;;;;;;;;;2090041;28;20219;-57
2021/09/18 04:04:11;;;;;;;23.70;17.23;;;;;;;;;;2089133;28;20204;-57
2021/09/18 04:05:11;;;;;;;19.23;16.23;;;;;;;;;;2089083;28;20172;-61
2021/09/18 04:06:12;;;;;;;16.67;14.52;;;;;;;;;;2088009;28;20210;-58
2021/09/18 04:07:13;;;;;;;16.75;13.95;;;;;;;;;;2084615;28;20179;-62
2021/09/18 04:08:13;;;;;;;18.15;14.02;;;;;;;;;;2087228;28;20925;-57
2021/09/18 04:09:14;;;;;;;19.20;15.10;;;;;;;;;;2089768;28;20301;-60
2021/09/18 04:10:14;;;;;;;17.65;13.70;;;;;;;;;;2090236;28;20174;-63
2021/09/18 04:11:14;;;;;;;19.10;13.85;;;;;;;;;;2080469;28;20195;-63
2021/09/18 04:12:16;;;;;;;16.42;14.30;;;;;;;;;;2080657;28;20267;-62
2021/09/18 04:13:16;;;;;;;17.17;14.40;;;;;;;;;;2090191;28;20253;-60
2021/09/18 04:14:16;;;;;;;17.90;14.77;;;;;;;;;;2087790;28;20225;-59
2021/09/18 04:15:16;;;;;;;16.75;14.02;;;;;;;;;;2089765;28;20186;-58
2021/09/18 04:16:18;;;;;;;15.30;13.55;;;;;;;;;;2089073;28;20270;-58
2021/09/18 04:17:18;;;;;;;16.70;14.18;;;;;;;;;;2086901;28;20156;-58
2021/09/18 04:18:19;;;;;;;19.55;15.50;;;;;;;;;;2078305;28;20187;-60
2021/09/18 04:19:19;;;;;;;21.35;16.38;;;;;;;;;;2080151;28;20259;-62
2021/09/18 04:20:19;;;;;;;20.58;15.52;;;;;;;;;;2079696;28;20177;-59
2021/09/18 04:21:19;;;;;;;18.52;16.25;;;;;;;;;;2088049;28;20177;-59
2021/09/18 04:22:20;;;;;;;18.90;16.40;;;;;;;;;;2089732;28;20171;-57
2021/09/18 04:23:20;;;;;;;22.23;17.10;;;;;;;;;;2089724;28;20273;-59
2021/09/18 04:24:20;;;;;;;23.88;18.55;;;;;;;;;;2089745;28;20166;-58
2021/09/18 04:25:21;;;;;;;22.20;17.27;;;;;;;;;;2087903;28;20194;-63
2021/09/18 04:26:21;;;;;;;19.85;16.55;;;;;;;;;;2074752;28;20284;-59
2021/09/18 04:27:21;;;;;;;21.58;16.88;;;;;;;;;;2080902;28;20174;-60
2021/09/18 04:28:22;;;;;;;21.73;16.80;;;;;;;;;;2089352;28;20262;-61
2021/09/18 04:29:22;;;;;;;23.15;17.45;;;;;;;;;;2089812;28;20210;-62
2021/09/18 04:30:22;;;;;;;19.92;16.00;;;;;;;;;;2072683;28;20171;-58
2021/09/18 04:31:22;;;;;;;20.52;16.63;;;;;;;;;;2072702;28;20604;-60
2021/09/18 04:32:23;;;;;;;20.42;16.73;;;;;;;;;;2080656;28;20231;-60
2021/09/18 04:33:23;;;;;;;21.58;16.10;;;;;;;;;;2080917;28;20579;-58
2021/09/18 04:34:23;;;;;;;19.67;16.75;;;;;;;;;;2080896;28;20700;-58
2021/09/18 04:35:23;;;;;;;23.05;15.95;;;;;;;;;;2081167;28;20677;-60
2021/09/18 04:36:24;;;;;;;19.05;15.95;;;;;;;;;;2080927;28;20282;-60
2021/09/18 04:37:24;;;;;;;17.70;15.02;;;;;;;;;;2088921;28;20172;-60
2021/09/18 04:38:24;;;;;;;18.35;15.02;;;;;;;;;;2089131;28;20175;-57
2021/09/18 04:39:25;;;;;;;18.13;15.35;;;;;;;;;;2089675;28;20180;-64
2021/09/18 04:40:25;;;;;;;17.63;15.07;;;;;;;;;;2080724;28;20164;-60
2021/09/18 04:41:26;;;;;;;17.50;15.35;;;;;;;;;;2081130;28;20811;-61
2021/09/18 04:42:26;;;;;;;20.33;16.00;;;;;;;;;;2090006;28;20738;-60
2021/09/18 04:43:27;;;;;;;22.25;16.92;;;;;;;;;;2089747;28;20172;-60
2021/09/18 04:44:27;;;;;;;20.60;15.27;;;;;;;;;;2079058;28;20214;-63
2021/09/18 04:45:27;;;;;;;16.55;14.52;;;;;;;;;;2080704;28;20180;-61
2021/09/18 04:46:27;;;;;;;18.58;14.50;;;;;;;;;;2080494;28;20196;-62
2021/09/18 04:47:28;;;;;;;19.67;14.73;;;;;;;;;;2079993;28;20222;-57
2021/09/18 04:48:28;;;;;;;20.40;15.40;;;;;;;;;;2088117;28;20317;-64
2021/09/18 04:49:28;;;;;;;17.50;14.52;;;;;;;;;;2085651;28;20191;-59
2021/09/18 04:50:28;;;;;;;20.35;16.08;;;;;;;;;;2089123;28;20171;-58
2021/09/18 04:51:31;;;;;;;19.00;14.80;;;;;;;;;;2088802;28;20305;-62
2021/09/18 04:52:31;;;;;;;17.55;15.00;;;;;;;;;;2081275;28;20204;-59
2021/09/18 04:53:31;;;;;;;18.58;15.57;;;;;;;;;;2088928;28;20164;-56
2021/09/18 04:54:32;;;;;;;18.98;15.25;;;;;;;;;;2087568;28;20699;-63
2021/09/18 04:55:32;;;;;;;19.95;15.48;;;;;;;;;;2088459;28;20216;-55
2021/09/18 04:56:32;;;;;;;19.23;15.48;;;;;;;;;;2087187;28;20199;-58
2021/09/18 04:57:32;;;;;;;18.05;15.13;;;;;;;;;;2088959;28;20174;-58
2021/09/18 04:58:32;;;;;;;19.92;15.63;;;;;;;;;;2086099;28;20176;-60
2021/09/18 04:59:33;;;;;;;17.00;14.68;;;;;;;;;;2072268;28;20553;-59
2021/09/18 05:00:33;;;;;;;17.65;14.57;;;;;;;;;;2071883;28;20174;-57
2021/09/18 05:01:33;;;;;;;15.70;14.07;;;;;;;;;;2071956;28;20176;-62
2021/09/18 05:02:34;;;;;;;18.50;15.77;;;;;;;;;;2079977;28;20186;-60
2021/09/18 05:03:34;;;;;;;16.42;14.20;;;;;;;;;;2088661;28;20173;-61
2021/09/18 05:04:34;;;;;;;17.67;14.73;;;;;;;;;;2079729;28;20188;-60
2021/09/18 05:05:34;;;;;;;21.02;15.60;;;;;;;;;;2079801;28;20168;-61
2021/09/18 05:06:35;;;;;;;16.55;14.48;;;;;;;;;;2088621;28;20219;-61
2021/09/18 05:07:35;;;;;;;17.02;15.20;;;;;;;;;;2079564;28;20279;-60
2021/09/18 05:08:35;;;;;;;18.30;15.30;;;;;;;;;;2079584;28;20268;-58
2021/09/18 05:09:35;;;;;;;17.58;14.80;;;;;;;;;;2088531;28;20175;-58
2021/09/18 05:10:36;;;;;;;17.20;14.25;;;;;;;;;;2088407;28;20187;-61
2021/09/18 05:11:36;;;;;;;17.23;13.55;;;;;;;;;;2088824;28;20675;-61
2021/09/18 05:12:36;;;;;;;15.90;14.00;;;;;;;;;;2084429;28;20848;-59
2021/09/18 05:13:36;;;;;;;20.27;16.08;;;;;;;;;;2079909;28;20634;-59
2021/09/18 05:14:37;;;;;;;19.27;15.95;;;;;;;;;;2079769;28;20271;-60
2021/09/18 05:15:37;;;;;;;20.45;16.55;;;;;;;;;;2088954;28;20175;-62
2021/09/18 05:16:37;;;;;;;19.52;15.75;;;;;;;;;;2079414;28;20168;-61
2021/09/18 05:17:37;;;;;;;20.20;16.08;;;;;;;;;;2080207;28;20646;-59
2021/09/18 05:18:38;;;;;;;18.35;16.38;;;;;;;;;;2081842;28;20556;-60
2021/09/18 05:19:38;;;;;;;19.67;16.13;;;;;;;;;;2088528;28;20697;-61
2021/09/18 05:20:38;;;;;;;21.05;17.27;;;;;;;;;;2088235;28;20671;-58
2021/09/18 05:21:39;;;;;;;19.88;15.50;;;;;;;;;;2086058;28;20562;-61
2021/09/18 05:22:39;;;;;;;20.42;15.55;;;;;;;;;;2088767;28;20176;-58
2021/09/18 05:23:39;;;;;;;18.83;15.05;;;;;;;;;;2086279;28;20180;-60
2021/09/18 05:24:40;;;;;;;17.58;15.38;;;;;;;;;;2088549;28;20170;-61
2021/09/18 05:25:40;;;;;;;21.73;15.85;;;;;;;;;;2078759;28;20642;-60
2021/09/18 05:26:40;;;;;;;19.17;16.00;;;;;;;;;;2079658;28;20656;-60
2021/09/18 05:27:40;;;;;;;16.73;15.05;;;;;;;;;;2086000;28;20168;-59
2021/09/18 05:28:41;;;;;;;19.00;15.38;;;;;;;;;;2088659;28;20187;-62
2021/09/18 05:29:43;;;;;;;22.38;16.45;;;;;;;;;;2085834;28;20188;-62
2021/09/18 05:30:44;;;;;;;20.25;15.85;;;;;;;;;;2080499;28;20255;-60
2021/09/18 05:31:44;;;;;;;19.58;16.15;;;;;;;;;;2080500;28;20235;-59
2021/09/18 05:32:44;;;;;;;17.75;15.85;;;;;;;;;;2080703;28;20204;-58
2021/09/18 05:33:44;;;;;;;18.75;14.85;;;;;;;;;;2081759;28;20268;-61
2021/09/18 05:34:45;;;;;;;21.98;16.38;;;;;;;;;;2081692;28;20175;-62
2021/09/18 05:35:45;;;;;;;23.10;15.15;;;;;;;;;;2081676;28;20267;-61
2021/09/18 05:36:45;;;;;;;18.65;15.27;;;;;;;;;;2090963;28;20171;-62
2021/09/18 05:37:45;;;;;;;17.00;15.07;;;;;;;;;;2089775;28;20171;-60
2021/09/18 05:38:46;;;;;;;19.13;15.52;;;;;;;;;;2090306;28;20168;-62
2021/09/18 05:39:46;;;;;;;16.35;13.82;;;;;;;;;;2081396;28;20172;-65
2021/09/18 05:40:46;;;;;;;14.45;12.95;;;;;;;;;;2073933;28;20216;-57
2021/09/18 05:41:47;;;;;;;16.00;13.70;;;;;;;;;;2081219;28;20180;-59
2021/09/18 05:42:47;;;;;;;17.13;13.85;;;;;;;;;;2090271;28;20229;-55
2021/09/18 05:43:47;;;;;;;17.35;14.82;;;;;;;;;;2086613;28;20187;-56
2021/09/18 05:44:47;;;;;;;20.23;15.60;;;;;;;;;;2081696;28;20557;-59
2021/09/18 05:45:48;;;;;;;21.60;15.80;;;;;;;;;;2082196;28;20195;-60
2021/09/18 05:46:48;;;;;;;17.85;15.38;;;;;;;;;;2081356;28;20238;-60
2021/09/18 05:47:48;;;;;;;19.05;16.25;;;;;;;;;;2081371;28;20220;-59
2021/09/18 05:48:48;;;;;;;20.25;15.25;;;;;;;;;;2087464;28;20202;-60
2021/09/18 05:49:49;;;;;;;20.13;15.60;;;;;;;;;;2090703;28;20192;-60
2021/09/18 05:50:49;;;;;;;18.52;15.07;;;;;;;;;;2089984;28;20187;-59
2021/09/18 05:51:49;;;;;;;16.13;14.20;;;;;;;;;;2080982;28;20267;-58